Time;durP1;ratioP1;P1;durP2;ratioP2;P2;SDS_P1;SDS_P2;PMS_P1;PMS_P2;Temp;Humidity;BMP_temperature;BMP_pressure;BME280_temperature;BME280_humidity;BME280_pressure;Samples;Min_cycle;Max_cycle;Signal;HPM_P1;HPM_P2
2021/05/11 00:01:37;;;;;;;;;;;17.10;84.30;;;;;;5129023;27;19908;-86
2021/05/11 00:04:02;;;;;;;;;;;17.10;84.50;;;;;;5128826;27;19912;-86
2021/05/11 00:06:28;;;;;;;;;;;17.00;85.00;;;;;;5128827;28;20433;-87
2021/05/11 00:08:53;;;;;;;;;;;17.00;85.50;;;;;;5128334;27;20042;-87
2021/05/11 00:11:19;;;;;;;;;;;17.00;85.60;;;;;;5128814;27;19955;-86
2021/05/11 00:13:44;;;;;;;;;;;17.00;86.00;;;;;;5128886;27;20358;-86
2021/05/11 00:16:10;;;;;;;;;;;16.90;87.00;;;;;;5130065;27;19907;-86
2021/05/11 00:18:36;;;;;;;;;;;16.90;87.00;;;;;;5129912;27;19912;-87
2021/05/11 00:21:05;;;;;;;;;;;16.80;87.40;;;;;;5128121;27;19995;-86
2021/05/11 00:23:30;;;;;;;;;;;16.80;88.20;;;;;;5128534;27;19969;-87
2021/05/11 00:25:56;;;;;;;;;;;16.80;88.50;;;;;;5128591;27;19915;-86
2021/05/11 00:28:22;;;;;;;;;;;16.70;89.20;;;;;;5128508;27;20018;-86
2021/05/11 00:30:47;;;;;;;;;;;16.70;89.90;;;;;;5129278;27;19915;-87
2021/05/11 00:33:13;;;;;;;;;;;16.60;90.00;;;;;;5128377;27;19908;-86
2021/05/11 00:35:38;;;;;;;;;;;16.60;90.40;;;;;;5119687;27;20397;-87
2021/05/11 00:38:04;;;;;;;;;;;16.50;90.30;;;;;;5114589;28;19965;-87
2021/05/11 00:40:29;;;;;;;;;;;16.60;90.60;;;;;;5115452;28;19965;-87
2021/05/11 00:42:55;;;;;;;;;;;16.60;91.00;;;;;;5114459;28;19919;-87
2021/05/11 00:45:21;;;;;;;;;;;16.60;91.70;;;;;;5114406;28;19956;-87
2021/05/11 00:47:46;;;;;;;;;;;16.60;91.80;;;;;;5114394;28;19908;-87
2021/05/11 00:50:12;;;;;;;;;;;16.60;91.30;;;;;;5115107;27;19908;-87
2021/05/11 00:52:39;;;;;;;;;;;16.50;91.30;;;;;;5114194;28;19908;-86
2021/05/11 00:55:04;;;;;;;;;;;16.50;92.00;;;;;;5114155;28;19911;-86
2021/05/11 00:57:31;;;;;;;;;;;16.40;91.90;;;;;;5115447;27;20267;-86
2021/05/11 00:59:58;;;;;;;;;;;16.40;92.10;;;;;;5113713;28;20192;-86
2021/05/11 01:02:23;;;;;;;;;;;16.30;92.40;;;;;;5115396;28;19999;-87
2021/05/11 01:04:49;;;;;;;;;;;16.40;92.70;;;;;;5114019;28;20348;-87
2021/05/11 01:07:15;;;;;;;;;;;16.40;92.90;;;;;;5115336;28;20339;-87
2021/05/11 01:09:40;;;;;;;;;;;16.50;92.70;;;;;;5115158;28;19958;-86
2021/05/11 01:12:06;;;;;;;;;;;16.50;92.60;;;;;;5113972;28;19908;-86
2021/05/11 01:14:31;;;;;;;;;;;16.50;92.70;;;;;;5115051;28;19964;-86
2021/05/11 01:17:01;;;;;;;;;;;16.50;92.50;;;;;;5115028;28;20068;-86
2021/05/11 01:19:38;;;;;;;;;;;16.50;92.40;;;;;;5113300;28;19953;-86
2021/05/11 01:24:42;;;;;;;;;;;16.40;92.80;;;;;;5114700;28;19919;-86
2021/05/11 02:23:16;;;;;;;;;;;15.80;97.00;;;;;;5113575;28;19922;-86
2021/05/11 02:25:42;;;;;;;;;;;15.90;96.90;;;;;;5111555;28;19907;-86
2021/05/11 02:28:08;;;;;;;;;;;15.80;97.00;;;;;;5111206;28;20003;-87
2021/05/11 02:30:33;;;;;;;;;;;15.70;97.20;;;;;;5111994;28;20396;-86
2021/05/11 02:32:59;;;;;;;;;;;15.70;97.30;;;;;;5113571;28;19969;-86
2021/05/11 02:35:25;;;;;;;;;;;15.60;97.70;;;;;;5112357;28;19943;-87
2021/05/11 02:37:51;;;;;;;;;;;15.60;97.60;;;;;;5112154;28;20338;-86
2021/05/11 02:40:19;;;;;;;;;;;15.60;97.80;;;;;;5111926;28;19914;-87
2021/05/11 02:42:46;;;;;;;;;;;15.60;97.90;;;;;;5112251;28;19912;-86
2021/05/11 02:45:14;;;;;;;;;;;15.60;98.10;;;;;;5112221;28;19919;-87
2021/05/11 02:47:49;;;;;;;;;;;15.60;98.00;;;;;;5112142;28;19908;-87
2021/05/11 02:50:16;;;;;;;;;;;15.60;98.10;;;;;;5111681;28;19915;-87
2021/05/11 02:52:41;;;;;;;;;;;15.60;98.00;;;;;;5111945;28;19908;-86
2021/05/11 02:55:07;;;;;;;;;;;15.60;98.10;;;;;;5112122;28;19931;-86
2021/05/11 02:57:36;;;;;;;;;;;15.60;98.30;;;;;;5111710;28;19939;-86
2021/05/11 03:00:02;;;;;;;;;;;15.60;98.20;;;;;;5112756;28;20380;-87
2021/05/11 03:02:28;;;;;;;;;;;15.70;98.20;;;;;;5112019;28;20513;-87
2021/05/11 03:04:55;;;;;;;;;;;15.70;98.30;;;;;;5111770;28;19964;-86
2021/05/11 03:07:20;;;;;;;;;;;15.70;98.10;;;;;;5113112;28;19943;-86
2021/05/11 03:09:46;;;;;;;;;;;15.60;98.20;;;;;;5111419;28;19989;-86
2021/05/11 03:12:11;;;;;;;;;;;15.60;98.30;;;;;;5113221;28;19981;-86
2021/05/11 03:14:37;;;;;;;;;;;15.70;98.50;;;;;;5111809;28;20353;-87
2021/05/11 03:17:02;;;;;;;;;;;15.70;98.50;;;;;;5111650;28;19912;-86
2021/05/11 03:19:28;;;;;;;;;;;15.60;98.30;;;;;;5111314;28;20418;-86
2021/05/11 03:21:53;;;;;;;;;;;15.60;98.40;;;;;;5113096;28;19984;-87
2021/05/11 03:24:19;;;;;;;;;;;15.60;98.40;;;;;;5111489;28;19954;-86
2021/05/11 03:26:44;;;;;;;;;;;15.60;98.50;;;;;;5111721;28;20372;-86
2021/05/11 03:29:10;;;;;;;;;;;15.70;98.30;;;;;;5112964;28;20387;-87
2021/05/11 03:31:35;;;;;;;;;;;15.70;98.50;;;;;;5112795;28;20003;-87
2021/05/11 03:34:01;;;;;;;;;;;15.70;98.50;;;;;;5111601;28;19912;-87
2021/05/11 03:36:26;;;;;;;;;;;15.60;98.50;;;;;;5112783;28;19911;-87
2021/05/11 03:38:53;;;;;;;;;;;15.70;98.40;;;;;;5112595;28;19977;-86
2021/05/11 03:41:22;;;;;;;;;;;15.70;98.20;;;;;;5111560;28;20279;-86
2021/05/11 03:44:03;;;;;;;;;;;15.70;98.40;;;;;;5111458;28;20002;-87
2021/05/11 03:46:29;;;;;;;;;;;15.70;98.50;;;;;;5111968;28;19918;-86
2021/05/11 03:48:54;;;;;;;;;;;15.70;98.30;;;;;;5112454;28;20119;-86
2021/05/11 03:51:20;;;;;;;;;;;15.60;98.50;;;;;;5111398;28;19954;-86
2021/05/11 03:53:46;;;;;;;;;;;15.60;98.60;;;;;;5113027;28;20002;-86
2021/05/11 03:56:11;;;;;;;;;;;15.60;98.80;;;;;;5111459;28;19908;-87
2021/05/11 03:58:37;;;;;;;;;;;15.50;98.80;;;;;;5111280;28;19908;-86
2021/05/11 04:01:03;;;;;;;;;;;15.50;99.00;;;;;;5112168;28;19907;-86
2021/05/11 04:03:28;;;;;;;;;;;15.60;98.70;;;;;;5111219;28;20324;-87
2021/05/11 04:05:55;;;;;;;;;;;15.50;98.70;;;;;;5111186;28;19912;-86
2021/05/11 04:16:18;;;;;;;;;;;15.70;98.50;;;;;;5116588;27;19912;-86
2021/05/11 04:18:44;;;;;;;;;;;15.70;98.50;;;;;;5116177;28;19908;-87
2021/05/11 04:21:09;;;;;;;;;;;15.70;98.60;;;;;;5114424;28;20441;-87
2021/05/11 04:23:34;;;;;;;;;;;15.70;98.60;;;;;;5114659;28;19915;-86
2021/05/11 04:26:00;;;;;;;;;;;15.70;98.80;;;;;;5116328;28;20299;-86
2021/05/11 04:28:26;;;;;;;;;;;15.70;98.70;;;;;;5115900;28;19907;-86
2021/05/11 04:30:51;;;;;;;;;;;15.60;98.80;;;;;;5115793;28;20396;-86
2021/05/11 04:33:17;;;;;;;;;;;15.70;98.80;;;;;;5114871;28;19933;-86
2021/05/11 04:35:42;;;;;;;;;;;15.70;98.80;;;;;;5116014;28;19915;-86
2021/05/11 04:38:08;;;;;;;;;;;15.70;98.80;;;;;;5114755;28;19908;-86
2021/05/11 04:40:33;;;;;;;;;;;15.70;99.00;;;;;;5114204;28;19915;-85
2021/05/11 04:42:59;;;;;;;;;;;15.70;98.90;;;;;;5115846;28;20001;-86
2021/05/11 04:55:09;;;;;;;;;;;15.80;99.00;;;;;;5113806;28;19915;-85
2021/05/11 04:58:06;;;;;;;;;;;15.70;98.80;;;;;;5079729;28;19908;-86
2021/05/11 05:01:09;;;;;;;;;;;15.70;99.00;;;;;;5102554;28;20487;-86
2021/05/11 05:04:33;;;;;;;;;;;15.70;98.80;;;;;;5072837;28;19966;-85
2021/05/11 05:13:26;;;;;;;;;;;15.70;98.70;;;;;;5002564;28;20349;-85
2021/05/11 05:19:47;;;;;;;;;;;15.70;98.20;;;;;;5012957;28;19959;-86
2021/05/11 05:22:32;;;;;;;;;;;15.70;98.40;;;;;;5023136;28;20390;-85
2021/05/11 05:25:00;;;;;;;;;;;15.70;98.60;;;;;;5034519;28;20382;-86
2021/05/11 05:27:50;;;;;;;;;;;15.70;98.40;;;;;;5080446;28;19908;-86
2021/05/11 05:30:12;;;;;;;;;;;15.70;98.50;;;;;;5115609;28;19908;-86
2021/05/11 05:32:38;;;;;;;;;;;15.70;98.40;;;;;;5114692;28;19908;-86
2021/05/11 05:35:04;;;;;;;;;;;15.60;98.70;;;;;;5114898;28;19914;-86
2021/05/11 05:37:29;;;;;;;;;;;15.70;98.60;;;;;;5104917;22;19925;-83
2021/05/11 05:40:00;;;;;;;;;;;15.70;98.70;;;;;;5053929;28;19971;-83
2021/05/11 05:42:45;;;;;;;;;;;15.70;98.50;;;;;;5053306;28;19909;-83
2021/05/11 05:45:31;;;;;;;;;;;15.80;98.40;;;;;;5054345;28;19917;-83
2021/05/11 05:47:56;;;;;;;;;;;15.70;98.30;;;;;;5068565;28;19915;-83
2021/05/11 05:50:27;;;;;;;;;;;15.70;98.50;;;;;;5071964;28;19916;-83
2021/05/11 05:52:59;;;;;;;;;;;15.80;98.40;;;;;;5073856;28;20365;-83
2021/05/11 05:55:25;;;;;;;;;;;15.80;97.80;;;;;;5073783;28;19915;-83
2021/05/11 05:57:50;;;;;;;;;;;15.80;97.90;;;;;;5072493;28;20288;-83
2021/05/11 06:00:17;;;;;;;;;;;15.80;97.90;;;;;;5073145;28;19954;-83
2021/05/11 06:02:47;;;;;;;;;;;15.80;97.80;;;;;;5072279;28;19912;-83
2021/05/11 06:05:13;;;;;;;;;;;15.80;97.60;;;;;;5072285;28;19920;-83
2021/05/11 06:07:39;;;;;;;;;;;15.80;97.80;;;;;;5073346;28;19909;-83
2021/05/11 06:10:11;;;;;;;;;;;15.80;98.00;;;;;;5071624;28;19909;-83
2021/05/11 06:17:56;;;;;;;;;;;15.70;97.80;;;;;;5073854;28;19915;-83
2021/05/11 06:20:21;;;;;;;;;;;15.70;97.60;;;;;;5071566;28;19991;-83
2021/05/11 06:22:47;;;;;;;;;;;15.70;97.80;;;;;;5073281;28;20034;-83
2021/05/11 06:25:13;;;;;;;;;;;15.70;97.90;;;;;;5071996;28;20429;-83
2021/05/11 06:27:38;;;;;;;;;;;15.80;97.90;;;;;;5071802;28;19915;-83
2021/05/11 06:30:04;;;;;;;;;;;15.70;97.80;;;;;;5072680;28;19916;-83
2021/05/11 06:32:29;;;;;;;;;;;15.70;98.10;;;;;;5072434;28;20046;-83
2021/05/11 06:35:00;;;;;;;;;;;15.80;98.10;;;;;;5072988;28;20342;-83
2021/05/11 06:37:25;;;;;;;;;;;15.90;97.90;;;;;;5071689;28;19916;-83
2021/05/11 06:39:52;;;;;;;;;;;15.90;97.80;;;;;;5071403;28;19915;-83
2021/05/11 06:42:20;;;;;;;;;;;15.90;97.80;;;;;;5071913;28;20281;-83
2021/05/11 06:55:09;;;;;;;;;;;16.00;97.30;;;;;;5073427;28;20042;-86
2021/05/11 06:57:34;;;;;;;;;;;16.00;97.50;;;;;;5071418;28;19912;-83
2021/05/11 07:00:00;;;;;;;;;;;16.00;97.70;;;;;;5070900;28;20003;-83
2021/05/11 07:02:25;;;;;;;;;;;16.00;97.60;;;;;;5071282;28;19909;-83
2021/05/11 07:04:52;;;;;;;;;;;16.00;97.60;;;;;;5071374;28;19935;-83
2021/05/11 07:07:18;;;;;;;;;;;16.00;97.70;;;;;;5071315;28;20304;-83
2021/05/11 07:14:56;;;;;;;;;;;16.00;97.60;;;;;;5073011;28;19915;-83
2021/05/11 07:17:22;;;;;;;;;;;16.00;97.10;;;;;;5071297;28;20007;-83
2021/05/11 07:19:47;;;;;;;;;;;16.00;97.20;;;;;;5071969;28;19915;-83
2021/05/11 07:22:13;;;;;;;;;;;16.00;96.90;;;;;;5072550;28;19909;-83
2021/05/11 07:24:39;;;;;;;;;;;16.00;97.00;;;;;;5072256;28;19913;-83
2021/05/11 07:29:53;;;;;;;;;;;16.00;97.30;;;;;;5072321;28;19909;-83
2021/05/11 07:32:20;;;;;;;;;;;16.00;97.20;;;;;;5071339;28;19908;-83
2021/05/11 07:34:48;;;;;;;;;;;16.00;97.00;;;;;;5071327;28;20433;-83
2021/05/11 07:37:14;;;;;;;;;;;15.90;97.30;;;;;;5071468;28;19920;-83
2021/05/11 07:39:44;;;;;;;;;;;16.00;97.40;;;;;;5072603;28;19908;-83
2021/05/11 07:42:10;;;;;;;;;;;16.00;97.50;;;;;;5071457;28;19963;-83
2021/05/11 07:44:37;;;;;;;;;;;16.00;97.50;;;;;;5072765;28;19917;-84
2021/05/11 07:47:18;;;;;;;;;;;16.00;97.40;;;;;;5078973;28;19916;-83
2021/05/11 08:03:35;;;;;;;;;;;16.10;97.40;;;;;;5078755;28;19962;-84
2021/05/11 08:16:35;;;;;;;;;;;16.10;95.90;;;;;;5079883;28;19996;-84
2021/05/11 08:22:12;;;;;;;;;;;16.20;96.10;;;;;;5078283;28;19919;-84
2021/05/11 08:27:30;;;;;;;;;;;16.30;95.50;;;;;;5078473;28;19955;-84
2021/05/11 08:29:56;;;;;;;;;;;16.30;94.90;;;;;;5077276;28;20046;-84
2021/05/11 08:32:22;;;;;;;;;;;16.30;95.00;;;;;;5078604;28;19948;-84
2021/05/11 08:34:47;;;;;;;;;;;16.30;95.10;;;;;;5077248;28;19908;-84
2021/05/11 08:37:16;;;;;;;;;;;16.40;94.50;;;;;;5076935;28;20396;-84
2021/05/11 08:39:46;;;;;;;;;;;16.30;94.30;;;;;;5077627;28;19908;-84
2021/05/11 08:42:11;;;;;;;;;;;16.40;94.60;;;;;;5078024;28;19915;-84
2021/05/11 08:44:37;;;;;;;;;;;16.50;94.60;;;;;;5078587;28;19912;-85
2021/05/11 08:47:04;;;;;;;;;;;16.50;94.50;;;;;;5078497;28;19908;-84
2021/05/11 08:49:29;;;;;;;;;;;16.60;94.60;;;;;;5078163;28;20353;-85
2021/05/11 08:52:04;;;;;;;;;;;16.70;94.40;;;;;;5076624;28;19916;-85
2021/05/11 09:00:04;;;;;;;;;;;16.70;93.30;;;;;;5080939;28;20438;-84
2021/05/11 09:05:28;;;;;;;;;;;16.80;93.90;;;;;;5080709;28;20464;-84
2021/05/11 09:30:06;;;;;;;;;;;16.90;93.10;;;;;;5081081;28;19916;-85
2021/05/11 09:32:31;;;;;;;;;;;16.90;93.50;;;;;;5079518;28;19909;-84
2021/05/11 09:50:54;;;;;;;;;;;16.90;92.80;;;;;;5088888;28;19918;-85
2021/05/11 10:40:19;;;;;;;;;;;17.40;91.80;;;;;;5074814;28;19920;-85
2021/05/11 10:48:29;;;;;;;;;;;17.30;92.10;;;;;;5075619;28;19912;-85
2021/05/11 10:50:56;;;;;;;;;;;17.30;92.00;;;;;;5073070;28;19919;-84
2021/05/11 10:53:41;;;;;;;;;;;17.30;91.60;;;;;;5074601;28;19936;-85
2021/05/11 10:56:24;;;;;;;;;;;17.30;91.60;;;;;;5073401;28;19913;-84
2021/05/11 11:01:43;;;;;;;;;;;17.30;91.70;;;;;;5074531;28;19916;-85
2021/05/11 11:04:13;;;;;;;;;;;17.30;91.80;;;;;;5073107;28;19969;-85
2021/05/11 11:07:00;;;;;;;;;;;17.30;92.00;;;;;;5073243;28;20003;-85
2021/05/11 11:09:27;;;;;;;;;;;17.40;92.00;;;;;;5073753;28;19908;-84
2021/05/11 11:11:53;;;;;;;;;;;17.40;92.00;;;;;;5072869;28;20045;-85
2021/05/11 11:14:18;;;;;;;;;;;17.40;91.80;;;;;;5073230;28;19908;-85
2021/05/11 11:16:44;;;;;;;;;;;17.40;91.90;;;;;;5073463;28;20443;-85
2021/05/11 11:19:10;;;;;;;;;;;17.40;91.90;;;;;;5073871;28;19956;-84
2021/05/11 11:23:32;;;;;;;;;;;17.40;91.90;;;;;;5073445;28;19908;-85
2021/05/11 11:24:38;;;;;;;;;;;17.40;92.00;;;;;;5074281;28;20372;-85
2021/05/11 11:27:04;;;;;;;;;;;17.40;92.00;;;;;;5072888;28;19974;-85
2021/05/11 11:29:30;;;;;;;;;;;17.40;92.00;;;;;;5073242;28;19909;-85
2021/05/11 11:31:55;;;;;;;;;;;17.40;92.10;;;;;;5073429;28;19951;-84
2021/05/11 11:34:23;;;;;;;;;;;17.40;91.80;;;;;;5073308;28;19954;-85
2021/05/11 11:36:51;;;;;;;;;;;17.40;91.90;;;;;;5098162;22;19920;-88
2021/05/11 11:39:21;;;;;;;;;;;17.40;91.60;;;;;;5094025;28;20010;-87
2021/05/11 11:41:47;;;;;;;;;;;17.40;91.70;;;;;;5094533;28;19937;-88
2021/05/11 11:44:17;;;;;;;;;;;17.30;91.70;;;;;;5094249;28;19911;-88
2021/05/11 11:46:43;;;;;;;;;;;17.30;91.60;;;;;;5112622;28;19908;-88
2021/05/11 11:49:12;;;;;;;;;;;17.30;91.60;;;;;;5112325;28;19919;-87
2021/05/11 11:51:38;;;;;;;;;;;17.30;91.60;;;;;;5113024;28;19908;-88
2021/05/11 11:54:15;;;;;;;;;;;17.30;91.60;;;;;;5094562;28;19998;-87
2021/05/11 11:59:25;;;;;;;;;;;17.30;91.80;;;;;;5112518;28;19914;-87
2021/05/11 12:01:54;;;;;;;;;;;17.30;91.70;;;;;;5112692;28;19907;-87
2021/05/11 12:04:19;;;;;;;;;;;17.30;91.60;;;;;;5112397;28;19919;-88
2021/05/11 12:06:48;;;;;;;;;;;17.40;91.40;;;;;;5094481;28;19911;-87
2021/05/11 12:09:14;;;;;;;;;;;17.40;90.70;;;;;;5094048;28;19912;-88
2021/05/11 12:11:39;;;;;;;;;;;17.30;89.70;;;;;;5094924;28;19908;-88
2021/05/11 12:14:05;;;;;;;;;;;17.30;91.00;;;;;;5094983;28;19911;-88
2021/05/11 12:16:39;;;;;;;;;;;17.00;92.70;;;;;;5094451;28;20372;-88
2021/05/11 12:19:10;;;;;;;;;;;17.00;93.30;;;;;;5094213;28;19912;-88
2021/05/11 12:21:51;;;;;;;;;;;16.80;93.60;;;;;;5094291;28;20436;-88
2021/05/11 12:24:17;;;;;;;;;;;16.80;94.30;;;;;;5094558;28;19919;-88
2021/05/11 12:26:45;;;;;;;;;;;16.60;94.40;;;;;;5094737;28;19912;-87
2021/05/11 12:29:12;;;;;;;;;;;16.40;94.70;;;;;;5093713;28;19960;-87
2021/05/11 12:31:40;;;;;;;;;;;16.40;95.10;;;;;;5113881;28;19991;-87
2021/05/11 12:34:07;;;;;;;;;;;16.40;94.90;;;;;;5098036;28;19920;-87
2021/05/11 12:36:38;;;;;;;;;;;16.40;94.60;;;;;;5098146;28;19911;-87
2021/05/11 12:42:13;;;;;;;;;;;16.40;94.80;;;;;;5117438;28;19908;-88
2021/05/11 12:44:38;;;;;;;;;;;16.40;94.60;;;;;;5098189;28;20372;-88
2021/05/11 12:47:05;;;;;;;;;;;16.20;95.10;;;;;;5116092;28;19908;-87
2021/05/11 12:49:31;;;;;;;;;;;16.10;94.70;;;;;;5097585;28;19908;-88
2021/05/11 12:51:57;;;;;;;;;;;16.10;95.00;;;;;;5097583;28;20006;-87
2021/05/11 12:59:34;;;;;;;;;;;16.00;95.40;;;;;;5115290;28;20356;-87
2021/05/11 13:26:23;;;;;;;;;;;15.80;98.10;;;;;;5115450;28;19918;-87
2021/05/11 13:33:59;;;;;;;;;;;15.60;98.10;;;;;;5115421;28;20322;-88
2021/05/11 13:36:25;;;;;;;;;;;15.60;98.10;;;;;;5114995;28;19908;-88
2021/05/11 13:38:50;;;;;;;;;;;15.60;98.30;;;;;;5096240;28;19923;-87
2021/05/11 13:41:16;;;;;;;;;;;15.70;98.40;;;;;;5096444;28;20368;-88
2021/05/11 13:43:41;;;;;;;;;;;15.70;98.40;;;;;;5096941;28;19919;-88
2021/05/11 13:46:07;;;;;;;;;;;15.70;98.60;;;;;;5115251;28;19908;-88
2021/05/11 13:48:36;;;;;;;;;;;15.70;98.40;;;;;;5097019;28;20295;-88
2021/05/11 13:51:18;;;;;;;;;;;15.70;98.30;;;;;;5096222;28;19908;-88
2021/05/11 13:53:52;;;;;;;;;;;15.60;98.40;;;;;;5096059;28;19944;-88
2021/05/11 13:56:37;;;;;;;;;;;15.60;98.60;;;;;;5096703;28;20025;-89
2021/05/11 14:04:35;;;;;;;;;;;15.60;98.70;;;;;;5114448;28;19964;-88
2021/05/11 14:07:01;;;;;;;;;;;15.50;99.00;;;;;;5096051;28;19964;-88
2021/05/11 14:09:27;;;;;;;;;;;15.60;98.80;;;;;;5113909;28;19970;-87
2021/05/11 14:11:52;;;;;;;;;;;15.60;99.00;;;;;;5096271;28;19908;-87
2021/05/11 14:14:18;;;;;;;;;;;15.60;98.80;;;;;;5096078;28;19968;-88
2021/05/11 14:16:44;;;;;;;;;;;15.50;98.60;;;;;;5095844;28;19908;-88
2021/05/11 14:19:10;;;;;;;;;;;15.50;99.00;;;;;;5113609;28;19943;-87
2021/05/11 14:21:36;;;;;;;;;;;15.50;99.20;;;;;;5095793;28;19942;-87
2021/05/11 14:24:02;;;;;;;;;;;15.50;99.30;;;;;;5095850;28;19919;-87
2021/05/11 14:26:28;;;;;;;;;;;15.60;99.00;;;;;;5096114;28;19914;-88
2021/05/11 14:28:54;;;;;;;;;;;15.60;99.60;;;;;;5095105;28;20367;-87
2021/05/11 14:31:20;;;;;;;;;;;15.60;99.40;;;;;;5114378;28;19908;-88
2021/05/11 14:37:46;;;;;;;;;;;15.60;99.10;;;;;;5011352;28;19964;-88
2021/05/11 14:41:06;;;;;;;;;;;15.60;99.10;;;;;;4990872;28;19925;-88
2021/05/11 14:44:01;;;;;;;;;;;15.70;99.40;;;;;;4991671;28;19918;-87
2021/05/11 14:52:31;;;;;;;;;;;15.80;99.60;;;;;;4972892;28;20330;-87
2021/05/11 14:54:57;;;;;;;;;;;15.80;99.40;;;;;;5042850;28;19911;-88
2021/05/11 14:57:22;;;;;;;;;;;15.90;99.50;;;;;;5095184;28;20268;-88
2021/05/11 14:59:48;;;;;;;;;;;15.90;99.30;;;;;;5094555;28;19978;-88
2021/05/11 15:02:14;;;;;;;;;;;15.90;99.10;;;;;;5095088;28;20352;-87
2021/05/11 15:04:40;;;;;;;;;;;15.90;99.20;;;;;;5095232;28;20283;-87
2021/05/11 15:07:05;;;;;;;;;;;15.90;99.10;;;;;;5095522;28;19911;-88
2021/05/11 15:09:31;;;;;;;;;;;15.90;99.30;;;;;;5112874;28;20003;-88
2021/05/11 15:11:57;;;;;;;;;;;15.90;98.80;;;;;;5095219;28;19915;-88
2021/05/11 15:14:22;;;;;;;;;;;15.90;98.70;;;;;;5095365;28;19908;-87
2021/05/11 15:16:57;;;;;;;;;;;15.80;99.10;;;;;;5095363;28;20295;-87
2021/05/11 15:19:22;;;;;;;;;;;15.80;99.00;;;;;;5094481;28;19908;-88
2021/05/11 15:21:48;;;;;;;;;;;15.90;99.30;;;;;;5094705;28;19969;-88
2021/05/11 15:24:13;;;;;;;;;;;15.90;99.30;;;;;;5095039;28;20336;-88
2021/05/11 15:26:39;;;;;;;;;;;15.80;99.10;;;;;;5113133;28;20101;-88
2021/05/11 15:29:05;;;;;;;;;;;15.90;98.70;;;;;;5094736;28;19915;-88
2021/05/11 15:31:32;;;;;;;;;;;15.90;98.90;;;;;;5097447;28;19908;-88
2021/05/11 15:33:58;;;;;;;;;;;15.90;98.70;;;;;;5098501;28;19911;-88
2021/05/11 15:36:24;;;;;;;;;;;16.00;98.30;;;;;;5094872;28;19915;-88
2021/05/11 15:38:50;;;;;;;;;;;15.90;97.80;;;;;;5094545;28;19985;-87
2021/05/11 15:41:15;;;;;;;;;;;15.90;98.10;;;;;;5097164;28;19919;-87
2021/05/11 15:43:41;;;;;;;;;;;15.80;98.10;;;;;;5118082;28;19919;-88
2021/05/11 15:46:07;;;;;;;;;;;15.80;98.10;;;;;;5099584;28;19919;-87
2021/05/11 15:48:33;;;;;;;;;;;15.80;98.30;;;;;;5118624;28;19954;-87
2021/05/11 15:51:52;;;;;;;;;;;15.90;98.40;;;;;;5094591;28;19908;-87
2021/05/11 15:54:54;;;;;;;;;;;15.90;98.50;;;;;;5066652;28;19909;-87
2021/05/11 15:58:00;;;;;;;;;;;15.90;98.10;;;;;;5038915;28;19908;-88
2021/05/11 16:03:48;;;;;;;;;;;16.00;97.70;;;;;;5070128;28;19955;-87
2021/05/11 16:06:34;;;;;;;;;;;15.90;98.00;;;;;;5061659;28;19962;-87
2021/05/11 16:12:41;;;;;;;;;;;16.10;98.50;;;;;;5074742;28;19991;-87
2021/05/11 16:15:28;;;;;;;;;;;16.00;98.00;;;;;;5080443;28;19915;-88
2021/05/11 16:17:53;;;;;;;;;;;16.00;97.90;;;;;;5118309;28;19912;-87
2021/05/11 16:20:19;;;;;;;;;;;16.00;97.60;;;;;;5099155;28;19941;-88
2021/05/11 16:22:45;;;;;;;;;;;16.00;97.90;;;;;;5098601;28;20432;-88
2021/05/11 16:25:11;;;;;;;;;;;15.90;96.90;;;;;;5098819;28;19912;-88
2021/05/11 16:27:38;;;;;;;;;;;15.90;97.10;;;;;;5116939;28;19935;-87
2021/05/11 16:30:04;;;;;;;;;;;15.90;97.10;;;;;;5097751;28;19998;-88
2021/05/11 16:32:30;;;;;;;;;;;15.90;97.00;;;;;;5097647;28;19931;-87
2021/05/11 16:34:55;;;;;;;;;;;15.90;97.30;;;;;;5098281;28;20360;-88
2021/05/11 16:37:21;;;;;;;;;;;15.90;97.70;;;;;;5097954;28;19908;-88
2021/05/11 16:39:46;;;;;;;;;;;16.00;97.30;;;;;;5097385;28;19912;-88
2021/05/11 16:42:13;;;;;;;;;;;15.90;97.40;;;;;;5097865;28;20284;-87
2021/05/11 16:44:38;;;;;;;;;;;15.90;97.30;;;;;;5097953;28;19968;-87
2021/05/11 16:47:04;;;;;;;;;;;15.90;97.50;;;;;;5098168;28;19964;-88
2021/05/11 16:49:29;;;;;;;;;;;15.80;97.60;;;;;;5097251;28;19911;-87
2021/05/11 16:51:55;;;;;;;;;;;15.80;97.80;;;;;;5097559;28;19919;-88
2021/05/11 16:54:21;;;;;;;;;;;15.90;98.00;;;;;;5116012;28;19993;-88
2021/05/11 16:56:47;;;;;;;;;;;15.90;98.10;;;;;;5097818;28;19994;-87
2021/05/11 16:59:12;;;;;;;;;;;15.90;98.00;;;;;;5097217;28;19957;-88
2021/05/11 17:01:38;;;;;;;;;;;15.90;98.10;;;;;;5097563;28;19912;-87
2021/05/11 17:04:04;;;;;;;;;;;15.90;98.30;;;;;;5097667;28;19920;-88
2021/05/11 17:06:33;;;;;;;;;;;15.80;98.40;;;;;;5097307;28;19908;-87
2021/05/11 17:08:59;;;;;;;;;;;15.70;98.40;;;;;;5115135;28;20360;-87
2021/05/11 17:11:24;;;;;;;;;;;15.70;98.50;;;;;;5097286;28;19914;-88
2021/05/11 17:13:50;;;;;;;;;;;15.70;98.40;;;;;;5097475;28;19934;-88
2021/05/11 17:16:16;;;;;;;;;;;15.70;98.60;;;;;;5097381;28;20001;-87
2021/05/11 17:18:41;;;;;;;;;;;15.70;98.50;;;;;;5114795;28;19912;-87
2021/05/11 17:21:08;;;;;;;;;;;15.70;98.40;;;;;;5096492;28;19934;-87
2021/05/11 17:23:33;;;;;;;;;;;15.60;98.30;;;;;;5096952;28;19908;-87
2021/05/11 17:26:00;;;;;;;;;;;15.60;98.20;;;;;;5097279;28;19930;-87
2021/05/11 17:28:27;;;;;;;;;;;15.70;98.30;;;;;;5097032;28;19907;-87
2021/05/11 17:30:58;;;;;;;;;;;15.60;98.30;;;;;;5096403;28;19908;-88
2021/05/11 17:33:25;;;;;;;;;;;15.60;98.20;;;;;;5097149;28;19994;-87
2021/05/11 17:35:51;;;;;;;;;;;15.50;98.20;;;;;;5115016;28;19929;-88
2021/05/11 17:38:21;;;;;;;;;;;15.50;98.20;;;;;;5116964;22;19924;-84
2021/05/11 17:40:48;;;;;;;;;;;15.60;98.50;;;;;;5114514;28;20451;-83
2021/05/11 17:43:13;;;;;;;;;;;15.60;98.60;;;;;;5096659;28;19954;-83
2021/05/11 17:45:39;;;;;;;;;;;15.60;98.40;;;;;;5115277;28;19959;-83
2021/05/11 17:48:05;;;;;;;;;;;15.60;98.40;;;;;;5097198;28;19939;-83
2021/05/11 17:50:31;;;;;;;;;;;15.60;98.50;;;;;;5096931;28;20489;-84
2021/05/11 17:52:58;;;;;;;;;;;15.60;98.40;;;;;;5115163;28;19972;-84
2021/05/11 17:55:24;;;;;;;;;;;15.50;98.40;;;;;;5097470;28;20419;-83
2021/05/11 17:57:50;;;;;;;;;;;15.60;98.40;;;;;;5115625;28;19954;-82
2021/05/11 18:00:16;;;;;;;;;;;15.50;98.40;;;;;;5096759;28;19915;-83
2021/05/11 18:02:42;;;;;;;;;;;15.50;98.30;;;;;;5097648;28;19942;-84
2021/05/11 18:05:11;;;;;;;;;;;15.50;98.10;;;;;;5097625;28;20360;-83
2021/05/11 18:07:37;;;;;;;;;;;15.50;98.10;;;;;;5097149;28;19908;-84
2021/05/11 18:10:02;;;;;;;;;;;15.40;98.00;;;;;;5114978;28;19907;-83
2021/05/11 18:12:28;;;;;;;;;;;15.50;98.20;;;;;;5097402;28;20372;-84
2021/05/11 18:14:53;;;;;;;;;;;15.50;98.00;;;;;;5097083;28;19914;-84
2021/05/11 18:17:19;;;;;;;;;;;15.50;97.70;;;;;;5096777;28;19992;-84
2021/05/11 18:19:45;;;;;;;;;;;15.50;97.70;;;;;;5096958;28;20002;-83
2021/05/11 18:22:11;;;;;;;;;;;15.50;97.20;;;;;;5097015;28;19935;-83
2021/05/11 18:24:37;;;;;;;;;;;15.40;96.70;;;;;;5116888;28;19994;-84
2021/05/11 18:27:04;;;;;;;;;;;15.40;97.10;;;;;;5097249;28;20391;-83
2021/05/11 18:29:30;;;;;;;;;;;15.40;97.20;;;;;;5096133;28;20249;-84
2021/05/11 18:31:55;;;;;;;;;;;15.40;97.20;;;;;;5097847;28;19907;-84
2021/05/11 18:34:21;;;;;;;;;;;15.40;97.20;;;;;;5097980;28;20375;-83
2021/05/11 18:39:24;;;;;;;;;;;15.50;97.50;;;;;;5115990;28;20284;-83
2021/05/11 18:41:56;;;;;;;;;;;15.50;97.60;;;;;;5096940;28;20273;-84
2021/05/11 18:44:22;;;;;;;;;;;15.50;97.60;;;;;;5096169;28;20443;-83
2021/05/11 18:46:48;;;;;;;;;;;15.50;97.80;;;;;;5114600;28;19939;-82
2021/05/11 18:49:17;;;;;;;;;;;15.50;98.00;;;;;;5095318;28;20391;-84
2021/05/11 18:51:43;;;;;;;;;;;15.50;97.90;;;;;;5095591;28;19907;-83
2021/05/11 18:54:09;;;;;;;;;;;15.50;97.60;;;;;;5095478;28;20420;-83
2021/05/11 18:56:35;;;;;;;;;;;15.40;97.50;;;;;;5113902;28;20001;-83
2021/05/11 18:59:01;;;;;;;;;;;15.40;97.50;;;;;;5095279;28;20281;-83
2021/05/11 19:01:26;;;;;;;;;;;15.40;97.70;;;;;;5095675;28;19918;-84
2021/05/11 19:03:52;;;;;;;;;;;15.50;97.50;;;;;;5095312;28;19912;-83
2021/05/11 19:06:20;;;;;;;;;;;15.50;97.60;;;;;;5095378;28;19998;-84
2021/05/11 19:08:45;;;;;;;;;;;15.40;97.40;;;;;;5095132;28;19908;-82
2021/05/11 19:11:12;;;;;;;;;;;15.40;97.70;;;;;;5113101;28;20357;-83
2021/05/11 19:13:37;;;;;;;;;;;15.50;97.80;;;;;;5095180;28;20006;-83
2021/05/11 19:16:07;;;;;;;;;;;15.50;97.50;;;;;;5095342;28;20348;-83
2021/05/11 19:18:33;;;;;;;;;;;15.50;97.60;;;;;;5097324;28;20279;-84
2021/05/11 19:20:59;;;;;;;;;;;15.50;97.80;;;;;;5094856;28;20226;-83
2021/05/11 19:23:25;;;;;;;;;;;15.50;97.90;;;;;;5112962;28;20002;-83
2021/05/11 19:25:51;;;;;;;;;;;15.50;97.70;;;;;;5094760;28;20451;-83
2021/05/11 19:28:16;;;;;;;;;;;15.50;97.50;;;;;;5094582;28;20010;-83
2021/05/11 19:30:42;;;;;;;;;;;15.40;97.40;;;;;;5094164;28;19915;-83